Time;durP1;ratioP1;P1;durP2;ratioP2;P2;SDS_P1;SDS_P2;PMS_P1;PMS_P2;Temp;Humidity;BMP_temperature;BMP_pressure;BME280_temperature;BME280_humidity;BME280_pressure;Samples;Min_cycle;Max_cycle;Signal;HPM_P1;HPM_P2
2023/04/25 00:02:20;;;;;;;30.07;6.60;;;7.70;1.00;;;;;;5094619;28;20200;-84
2023/04/25 00:04:48;;;;;;;17.93;8.10;;;7.70;1.00;;;;;;5095085;28;20207;-83
2023/04/25 00:07:14;;;;;;;15.93;7.10;;;7.70;1.00;;;;;;5085779;28;20487;-84
2023/04/25 00:09:40;;;;;;;22.13;5.80;;;7.60;1.00;;;;;;5095004;28;20194;-84
2023/04/25 00:12:06;;;;;;;28.03;6.53;;;7.60;1.00;;;;;;5095085;28;20244;-84
2023/04/25 00:14:33;;;;;;;14.40;5.97;;;7.60;13.60;;;;;;5097001;28;20477;-84
2023/04/25 00:16:59;;;;;;;15.65;5.78;;;7.60;52.80;;;;;;5087811;28;20505;-84
2023/04/25 00:19:26;;;;;;;13.47;6.00;;;7.60;92.00;;;;;;5086724;28;20189;-84
2023/04/25 00:21:53;;;;;;;12.77;6.88;;;7.60;58.60;;;;;;5100127;28;20187;-84
2023/04/25 00:24:19;;;;;;;22.52;6.95;;;7.50;98.10;;;;;;5102023;28;20176;-84
2023/04/25 00:26:44;;;;;;;14.45;5.80;;;7.50;99.90;;;;;;5102097;28;20185;-84
2023/04/25 00:29:10;;;;;;;14.60;6.20;;;7.40;99.90;;;;;;5105315;28;20259;-84
2023/04/25 00:31:36;;;;;;;20.50;6.90;;;7.40;99.90;;;;;;5111414;28;20184;-84
2023/04/25 00:34:01;;;;;;;12.83;6.27;;;7.40;99.90;;;;;;5102297;28;20200;-84
2023/04/25 00:36:27;;;;;;;11.40;6.17;;;7.40;99.90;;;;;;5107957;28;20212;-84
2023/04/25 00:38:54;;;;;;;19.20;6.90;;;7.40;99.90;;;;;;5105938;28;20240;-84
2023/04/25 00:41:20;;;;;;;21.92;8.60;;;7.40;1.00;;;;;;5101434;28;20169;-84
2023/04/25 00:43:47;;;;;;;20.10;6.00;;;7.40;1.00;;;;;;5104418;28;20252;-84
2023/04/25 00:46:13;;;;;;;18.65;6.85;;;7.40;1.00;;;;;;5104261;28;20217;-84
2023/04/25 00:48:38;;;;;;;13.93;7.10;;;7.40;1.00;;;;;;5099835;28;20196;-84
2023/04/25 00:51:04;;;;;;;17.80;7.73;;;7.30;1.00;;;;;;5097508;28;20189;-84
2023/04/25 00:53:31;;;;;;;23.00;9.53;;;7.20;99.90;;;;;;5096249;28;20208;-84
2023/04/25 00:55:58;;;;;;;13.00;6.57;;;7.20;99.90;;;;;;5107027;28;20493;-84
2023/04/25 00:58:23;;;;;;;18.30;7.13;;;7.20;99.90;;;;;;5103583;28;20231;-84
2023/04/25 01:00:51;;;;;;;20.17;9.33;;;7.20;99.90;;;;;;5106577;28;20184;-85
2023/04/25 01:03:19;;;;;;;23.40;8.40;;;7.20;1.00;;;;;;5101321;28;20204;-84
2023/04/25 01:05:46;;;;;;;18.70;7.32;;;7.20;1.00;;;;;;5100632;28;20194;-83
2023/04/25 01:08:13;;;;;;;15.02;6.05;;;7.20;1.00;;;;;;5104004;28;20244;-84
2023/04/25 01:10:39;;;;;;;21.27;8.05;;;7.20;1.00;;;;;;5107769;28;20934;-84
2023/04/25 01:13:04;;;;;;;14.23;7.23;;;7.20;1.00;;;;;;5105169;28;20255;-84
2023/04/25 01:15:30;;;;;;;18.53;7.27;;;7.20;1.00;;;;;;5102076;28;20204;-84
2023/04/25 01:17:56;;;;;;;19.57;8.50;;;7.20;1.00;;;;;;5107199;28;20195;-84
2023/04/25 01:20:22;;;;;;;24.10;8.15;;;7.20;8.10;;;;;;5105994;28;20191;-84
2023/04/25 01:22:50;;;;;;;19.67;8.68;;;7.10;99.90;;;;;;5106494;28;20184;-84
2023/04/25 01:25:16;;;;;;;17.70;7.63;;;7.10;99.90;;;;;;5100518;28;20210;-85
2023/04/25 01:27:42;;;;;;;19.63;7.05;;;7.10;99.90;;;;;;5102332;28;20184;-85
2023/04/25 01:30:09;;;;;;;17.30;7.07;;;7.00;1.00;;;;;;5101895;28;20189;-84
2023/04/25 01:32:38;;;;;;;18.75;7.00;;;7.00;1.00;;;;;;5105984;28;20450;-84
2023/04/25 01:35:09;;;;;;;16.77;6.65;;;7.00;1.00;;;;;;5102180;28;20216;-84
2023/04/25 01:37:42;;;;;;;11.50;6.95;;;6.90;1.00;;;;;;5107907;28;20453;-84
2023/04/25 01:40:09;;;;;;;21.40;7.38;;;6.90;99.90;;;;;;5102446;28;20180;-84
2023/04/25 01:42:39;;;;;;;22.52;7.63;;;6.90;1.00;;;;;;5106737;28;20567;-84
2023/04/25 01:45:06;;;;;;;11.68;6.95;;;6.90;99.90;;;;;;5098190;28;20203;-84
2023/04/25 01:47:32;;;;;;;14.43;6.22;;;6.90;99.90;;;;;;5104358;28;20214;-84
2023/04/25 01:49:57;;;;;;;16.07;7.30;;;7.00;99.90;;;;;;5090801;28;20180;-84
2023/04/25 01:52:23;;;;;;;17.73;7.47;;;7.00;99.90;;;;;;5107319;28;20217;-84
2023/04/25 01:54:49;;;;;;;20.90;8.20;;;7.10;99.90;;;;;;5103541;28;20291;-84
2023/04/25 01:57:15;;;;;;;16.90;7.82;;;7.10;99.90;;;;;;5104333;28;20237;-84
2023/04/25 01:59:42;;;;;;;27.37;7.07;;;7.20;99.90;;;;;;5103972;28;20180;-84
2023/04/25 02:02:07;;;;;;;17.60;8.07;;;7.20;99.90;;;;;;5102985;28;20199;-84
2023/04/25 02:04:33;;;;;;;13.93;7.20;;;7.20;29.50;;;;;;5102279;28;20208;-84
2023/04/25 02:06:58;;;;;;;11.53;6.27;;;7.20;1.00;;;;;;5110378;28;20321;-84
2023/04/25 02:09:24;;;;;;;17.40;7.30;;;7.30;34.30;;;;;;5104534;28;20677;-84
2023/04/25 02:11:50;;;;;;;18.37;7.43;;;7.30;80.90;;;;;;5093151;28;20196;-84
2023/04/25 02:14:15;;;;;;;15.57;7.70;;;7.30;1.00;;;;;;5087249;28;20243;-84
2023/04/25 02:16:43;;;;;;;17.43;8.70;;;7.30;1.00;;;;;;5093587;28;20649;-84
2023/04/25 02:19:10;;;;;;;16.85;8.85;;;7.40;1.00;;;;;;5088398;28;20185;-84
2023/04/25 02:21:36;;;;;;;14.93;7.63;;;7.40;1.00;;;;;;5094114;28;20204;-83
2023/04/25 02:24:02;;;;;;;15.43;8.00;;;7.40;1.00;;;;;;5091078;28;20204;-83
2023/04/25 02:26:27;;;;;;;18.65;7.60;;;7.30;1.00;;;;;;5099568;28;20195;-84
2023/04/25 02:28:53;;;;;;;19.03;8.17;;;7.30;1.00;;;;;;5095276;28;20658;-84
2023/04/25 02:31:18;;;;;;;21.17;9.10;;;7.30;1.00;;;;;;5096010;28;20188;-84
2023/04/25 02:33:44;;;;;;;16.90;8.70;;;7.30;1.00;;;;;;5089694;28;20216;-84
2023/04/25 02:36:10;;;;;;;20.87;9.20;;;7.30;99.90;;;;;;5095412;28;20251;-84
2023/04/25 02:38:35;;;;;;;15.53;9.80;;;7.30;99.90;;;;;;5095467;28;20187;-84
2023/04/25 02:41:01;;;;;;;24.60;9.80;;;7.30;99.90;;;;;;5099028;28;20644;-84
2023/04/25 02:43:26;;;;;;;23.50;9.93;;;7.30;99.90;;;;;;5097054;28;20200;-84
2023/04/25 02:45:52;;;;;;;18.53;8.50;;;7.30;99.90;;;;;;5099173;28;20318;-84
2023/04/25 02:48:17;;;;;;;24.60;8.67;;;7.30;99.90;;;;;;5092824;28;20188;-84
2023/04/25 02:50:43;;;;;;;20.57;10.53;;;7.30;99.90;;;;;;5098272;28;20198;-83
2023/04/25 02:53:08;;;;;;;14.40;7.10;;;7.40;99.90;;;;;;5094765;28;20207;-84
2023/04/25 02:55:34;;;;;;;25.43;8.30;;;7.40;99.90;;;;;;5091380;28;20282;-84
2023/04/25 02:57:59;;;;;;;13.90;7.30;;;7.40;99.90;;;;;;5096766;28;20649;-83
2023/04/25 03:00:25;;;;;;;19.10;8.33;;;7.40;99.90;;;;;;5097342;28;20184;-84
2023/04/25 03:02:51;;;;;;;20.57;8.67;;;7.40;99.90;;;;;;5097990;28;20180;-84
2023/04/25 03:05:17;;;;;;;19.07;7.97;;;7.40;99.90;;;;;;5094347;28;20180;-84
2023/04/25 03:07:43;;;;;;;23.80;7.90;;;7.40;99.90;;;;;;5097765;28;20434;-84
2023/04/25 03:10:10;;;;;;;14.80;7.50;;;7.40;1.00;;;;;;5094693;28;20184;-84
2023/04/25 03:12:35;;;;;;;16.77;8.63;;;7.40;1.00;;;;;;5089923;28;20271;-83
2023/04/25 03:15:01;;;;;;;22.73;8.30;;;7.40;1.00;;;;;;5091898;28;20216;-84
2023/04/25 03:17:27;;;;;;;17.53;9.00;;;7.40;1.00;;;;;;5091468;28;20176;-84
2023/04/25 03:19:52;;;;;;;16.50;8.00;;;7.40;1.00;;;;;;5096537;28;20259;-83
2023/04/25 03:22:18;;;;;;;17.87;8.30;;;7.40;1.00;;;;;;5091681;28;20180;-83
2023/04/25 03:24:43;;;;;;;19.80;7.53;;;7.40;1.00;;;;;;5098204;28;20212;-84
2023/04/25 03:27:09;;;;;;;19.57;8.50;;;7.40;1.00;;;;;;5092545;28;20247;-84
2023/04/25 03:29:35;;;;;;;20.03;8.10;;;7.40;1.00;;;;;;5099744;28;20195;-84
2023/04/25 03:32:00;;;;;;;16.47;8.03;;;7.40;1.00;;;;;;5098709;28;20228;-84
2023/04/25 03:34:26;;;;;;;17.17;7.87;;;7.40;1.00;;;;;;5097057;28;20454;-84
2023/04/25 03:36:51;;;;;;;20.90;7.90;;;7.40;1.00;;;;;;5092977;28;20189;-83
2023/04/25 03:39:17;;;;;;;13.80;6.83;;;7.40;1.00;;;;;;5097446;28;20715;-83
2023/04/25 03:41:43;;;;;;;17.40;7.23;;;7.40;1.00;;;;;;5097075;28;20560;-84
2023/04/25 03:44:08;;;;;;;22.70;7.60;;;7.40;1.00;;;;;;5096738;28;20709;-84
2023/04/25 03:46:34;;;;;;;30.50;9.80;;;7.40;1.00;;;;;;5093257;28;20184;-84
2023/04/25 03:48:59;;;;;;;16.00;7.83;;;7.40;1.00;;;;;;5096791;28;20184;-83
2023/04/25 03:51:25;;;;;;;16.83;7.60;;;7.40;1.00;;;;;;5099627;28;20195;-84
2023/04/25 03:53:52;;;;;;;14.73;7.63;;;7.40;99.90;;;;;;5103908;28;20211;-84
2023/04/25 03:56:17;;;;;;;15.05;7.43;;;7.40;99.90;;;;;;5102405;28;20465;-84
2023/04/25 03:58:43;;;;;;;19.97;9.33;;;7.40;1.00;;;;;;5107378;28;20673;-84
2023/04/25 04:01:08;;;;;;;18.80;8.80;;;7.40;1.00;;;;;;5107302;28;20192;-84
2023/04/25 04:03:35;;;;;;;21.13;8.23;;;7.40;1.00;;;;;;5109118;28;20230;-84
2023/04/25 04:06:03;;;;;;;19.55;7.65;;;7.30;99.90;;;;;;5106929;28;20442;-84
2023/04/25 04:08:29;;;;;;;17.27;8.07;;;7.30;99.90;;;;;;5106818;28;20594;-84
2023/04/25 04:10:55;;;;;;;19.90;9.27;;;7.30;1.00;;;;;;5108124;28;20180;-84
2023/04/25 04:13:20;;;;;;;13.77;7.87;;;7.30;1.00;;;;;;5102961;28;20620;-84
2023/04/25 04:15:46;;;;;;;21.30;8.07;;;7.30;1.00;;;;;;5107886;28;20203;-84
2023/04/25 04:18:11;;;;;;;21.93;8.20;;;7.20;1.00;;;;;;5103447;28;20236;-85
2023/04/25 04:20:37;;;;;;;15.03;8.20;;;7.20;30.10;;;;;;5101444;28;20729;-84
2023/04/25 04:23:02;;;;;;;18.47;8.33;;;7.20;99.90;;;;;;5102496;28;20176;-84
2023/04/25 04:25:28;;;;;;;17.17;7.20;;;7.20;99.90;;;;;;5105712;28;20176;-84
2023/04/25 04:27:54;;;;;;;17.10;7.67;;;7.30;99.90;;;;;;5103660;28;20179;-85
2023/04/25 04:30:23;;;;;;;14.95;7.65;;;7.30;99.90;;;;;;5098808;28;20190;-85
2023/04/25 04:32:50;;;;;;;22.65;8.68;;;7.30;99.90;;;;;;5101397;28;20245;-84
2023/04/25 04:35:15;;;;;;;17.42;8.07;;;7.40;99.90;;;;;;5103254;28;20209;-85
2023/04/25 04:37:41;;;;;;;17.17;8.37;;;7.40;99.90;;;;;;5103984;28;20187;-85
2023/04/25 04:40:07;;;;;;;17.13;8.30;;;7.40;99.90;;;;;;5104512;28;20207;-84
2023/04/25 04:42:32;;;;;;;24.60;7.95;;;7.40;99.90;;;;;;5102281;28;20176;-84
2023/04/25 04:44:58;;;;;;;15.23;6.63;;;7.40;99.90;;;;;;5104566;28;20210;-85
2023/04/25 04:47:25;;;;;;;15.50;7.23;;;7.40;99.90;;;;;;5103395;28;20195;-84
2023/04/25 04:49:51;;;;;;;14.02;7.00;;;7.40;99.90;;;;;;5098623;28;20246;-85
2023/04/25 04:52:16;;;;;;;19.90;7.93;;;7.50;27.40;;;;;;5103017;28;20197;-85
2023/04/25 04:54:42;;;;;;;20.43;8.20;;;7.50;1.00;;;;;;5102077;28;20215;-84
2023/04/25 04:57:07;;;;;;;19.73;8.87;;;7.50;1.00;;;;;;5091160;28;20244;-84
2023/04/25 04:59:33;;;;;;;15.17;7.93;;;7.60;1.00;;;;;;5105023;28;20208;-84
2023/04/25 05:01:58;;;;;;;17.07;8.07;;;7.70;99.90;;;;;;5105062;28;20642;-84
2023/04/25 05:04:24;;;;;;;21.80;7.17;;;7.80;63.00;;;;;;5104326;28;20226;-84
2023/04/25 05:06:49;;;;;;;23.53;7.30;;;7.90;1.00;;;;;;5103519;28;20214;-83
2023/04/25 05:09:15;;;;;;;13.70;6.90;;;8.00;1.00;;;;;;5100180;28;20184;-84
2023/04/25 05:11:40;;;;;;;18.60;6.80;;;8.10;99.90;;;;;;5103019;28;20648;-84
2023/04/25 05:14:06;;;;;;;20.13;8.00;;;8.10;1.00;;;;;;5102607;28;20218;-85
2023/04/25 05:16:31;;;;;;;10.10;6.80;;;8.10;1.00;;;;;;5104097;28;20673;-84
2023/04/25 05:18:57;;;;;;;26.47;7.53;;;8.20;99.90;;;;;;5099392;28;20189;-84
2023/04/25 05:21:22;;;;;;;23.13;6.30;;;8.30;99.90;;;;;;5103227;28;20181;-85
2023/04/25 05:23:48;;;;;;;19.70;6.23;;;8.30;1.00;;;;;;5101881;28;20188;-84
2023/04/25 05:26:13;;;;;;;17.20;6.87;;;8.50;1.00;;;;;;5102977;28;20188;-85
2023/04/25 05:28:42;;;;;;;20.37;7.17;;;8.60;99.90;;;;;;5102348;28;20172;-85
2023/04/25 05:31:10;;;;;;;19.50;6.83;;;9.00;21.30;;;;;;5102617;28;20188;-84
2023/04/25 05:33:35;;;;;;;18.00;6.33;;;9.70;99.90;;;;;;5104676;28;20449;-85
2023/04/25 05:36:01;;;;;;;12.70;5.97;;;10.20;99.90;;;;;;5105690;28;20607;-84
2023/04/25 05:38:26;;;;;;;13.93;5.77;;;10.80;99.90;;;;;;5109767;28;20227;-85
2023/04/25 05:40:52;;;;;;;13.23;5.70;;;11.70;1.00;;;;;;5111459;28;20199;-84
2023/04/25 05:43:17;;;;;;;18.47;5.30;;;12.00;1.00;;;;;;5098984;28;20276;-83
2023/04/25 05:45:43;;;;;;;13.10;5.30;;;12.10;1.00;;;;;;5093254;28;20224;-84
2023/04/25 05:48:08;;;;;;;15.63;6.00;;;12.20;99.90;;;;;;5102284;28;20184;-84
2023/04/25 05:50:34;;;;;;;20.40;5.80;;;12.70;99.90;;;;;;5097486;28;20187;-85
2023/04/25 05:52:59;;;;;;;11.23;4.50;;;13.60;99.90;;;;;;5096103;28;20670;-83
2023/04/25 05:55:25;;;;;;;16.90;5.20;;;14.50;99.90;;;;;;5097178;28;20279;-84
2023/04/25 05:57:50;;;;;;;13.63;4.10;;;15.80;99.90;;;;;;5098022;28;20176;-85
2023/04/25 06:00:16;;;;;;;17.10;5.07;;;17.50;99.90;;;;;;5100817;28;20185;-85
2023/04/25 06:02:42;;;;;;;8.40;4.60;;;18.50;99.90;;;;;;5101320;28;20270;-85
2023/04/25 06:05:08;;;;;;;15.53;5.10;;;19.30;99.90;;;;;;5095589;28;20280;-85
2023/04/25 06:07:33;;;;;;;14.43;4.70;;;18.60;99.90;;;;;;5098854;28;20678;-86
2023/04/25 06:10:00;;;;;;;20.70;5.80;;;17.30;99.90;;;;;;5097901;28;20460;-85
2023/04/25 06:12:26;;;;;;;20.17;5.10;;;16.30;99.90;;;;;;5097541;28;20241;-85
2023/04/25 06:14:51;;;;;;;14.57;5.17;;;15.40;99.90;;;;;;5091956;28;20465;-83
2023/04/25 06:17:17;;;;;;;12.87;5.60;;;14.50;99.90;;;;;;5087962;28;20183;-86
2023/04/25 06:19:42;;;;;;;13.10;5.07;;;13.80;99.90;;;;;;5089260;28;20176;-86
2023/04/25 06:22:08;;;;;;;14.43;5.13;;;13.30;99.90;;;;;;5095269;28;20181;-84
2023/04/25 06:24:34;;;;;;;13.73;5.30;;;12.90;99.90;;;;;;5081807;28;20200;-85
2023/04/25 06:27:00;;;;;;;16.00;4.97;;;12.50;99.90;;;;;;5097050;28;20185;-85
2023/04/25 06:29:25;;;;;;;19.50;4.83;;;12.30;99.90;;;;;;5091960;28;20491;-85
2023/04/25 06:31:51;;;;;;;12.40;4.43;;;12.20;99.90;;;;;;5096865;28;20180;-85
2023/04/25 06:34:17;;;;;;;18.20;5.00;;;12.20;99.90;;;;;;5083014;28;20232;-83
2023/04/25 06:36:44;;;;;;;17.07;4.87;;;12.20;99.90;;;;;;5083761;28;20208;-85
2023/04/25 06:39:09;;;;;;;8.93;4.77;;;12.20;99.90;;;;;;5095008;28;20197;-86
2023/04/25 06:41:35;;;;;;;19.23;4.60;;;12.10;99.90;;;;;;5101247;28;20449;-85
2023/04/25 06:44:01;;;;;;;7.37;4.30;;;11.90;99.90;;;;;;5092428;28;20204;-84
2023/04/25 06:46:26;;;;;;;13.27;4.53;;;12.00;99.90;;;;;;5087181;28;20285;-85
2023/04/25 06:48:52;;;;;;;16.23;5.17;;;12.10;99.90;;;;;;5089703;28;20938;-86
2023/04/25 06:51:17;;;;;;;10.90;3.67;;;12.10;99.90;;;;;;5088321;28;20201;-84
2023/04/25 06:53:43;;;;;;;12.63;4.67;;;12.00;99.90;;;;;;5092599;28;20214;-84
2023/04/25 06:56:09;;;;;;;6.77;3.70;;;12.10;99.90;;;;;;5091511;28;20623;-84
2023/04/25 06:58:34;;;;;;;16.30;4.40;;;12.10;99.90;;;;;;5088860;28;20233;-83
2023/04/25 07:01:00;;;;;;;16.23;5.13;;;12.10;99.90;;;;;;5090517;28;20264;-84
2023/04/25 07:03:25;;;;;;;11.17;4.30;;;12.10;99.90;;;;;;5092416;28;20204;-84
2023/04/25 07:05:51;;;;;;;14.83;5.20;;;12.20;99.90;;;;;;5093642;28;20199;-85
2023/04/25 07:08:16;;;;;;;11.80;4.50;;;12.30;99.90;;;;;;5089245;28;20224;-84
2023/04/25 07:10:42;;;;;;;10.10;3.80;;;12.40;99.90;;;;;;5098125;28;20248;-84
2023/04/25 07:13:08;;;;;;;9.67;3.47;;;12.50;99.90;;;;;;5091508;28;20310;-84
2023/04/25 07:15:33;;;;;;;12.13;3.93;;;12.70;99.90;;;;;;5097174;28;20212;-85
2023/04/25 07:17:59;;;;;;;11.13;3.40;;;13.00;99.90;;;;;;5093143;28;20172;-85
2023/04/25 07:20:25;;;;;;;9.57;4.30;;;13.40;99.90;;;;;;5086332;28;20240;-85
2023/04/25 07:22:50;;;;;;;10.90;4.20;;;13.90;99.90;;;;;;5094170;28;20179;-84
2023/04/25 07:25:16;;;;;;;13.73;4.27;;;14.30;99.90;;;;;;5094583;28;20213;-85
2023/04/25 07:27:42;;;;;;;10.20;4.07;;;14.40;99.90;;;;;;5089637;28;20191;-85
2023/04/25 07:30:08;;;;;;;11.93;4.60;;;14.50;99.90;;;;;;5097184;28;20450;-84
2023/04/25 07:32:34;;;;;;;10.60;3.67;;;14.70;99.90;;;;;;5094895;28;20266;-84
2023/04/25 07:35:01;;;;;;;13.10;3.10;;;15.20;99.90;;;;;;5090328;28;20481;-85
2023/04/25 07:37:27;;;;;;;11.03;3.47;;;15.70;99.90;;;;;;5091067;28;20441;-85
2023/04/25 07:39:52;;;;;;;8.63;3.50;;;16.40;99.90;;;;;;5097239;28;20459;-85
2023/04/25 07:42:18;;;;;;;9.20;2.80;;;17.20;99.90;;;;;;5095725;28;20208;-84
2023/04/25 07:44:43;;;;;;;13.90;3.83;;;17.50;99.90;;;;;;5092993;28;20696;-84
2023/04/25 07:47:10;;;;;;;10.53;3.33;;;17.70;99.90;;;;;;5093347;28;20195;-85
2023/04/25 07:49:36;;;;;;;14.47;3.23;;;17.80;99.90;;;;;;5097448;28;20284;-86
2023/04/25 07:52:03;;;;;;;17.07;4.13;;;17.60;99.90;;;;;;5097344;28;20442;-85
2023/04/25 07:54:28;;;;;;;11.63;3.27;;;17.30;99.90;;;;;;5090036;28;20580;-84
2023/04/25 07:56:54;;;;;;;11.33;3.93;;;17.30;99.90;;;;;;5098683;28;20474;-84
2023/04/25 07:59:20;;;;;;;11.27;3.63;;;17.90;99.90;;;;;;5091815;28;20188;-85
2023/04/25 08:01:45;;;;;;;8.90;3.50;;;18.50;99.90;;;;;;5098789;28;20277;-84
2023/04/25 08:04:11;;;;;;;11.93;3.30;;;18.60;99.90;;;;;;5101057;28;20228;-85
2023/04/25 08:06:37;;;;;;;12.10;4.23;;;18.40;99.90;;;;;;5101652;28;20214;-85
2023/04/25 08:09:05;;;;;;;9.90;3.60;;;18.20;99.90;;;;;;5103109;28;20283;-85
2023/04/25 08:11:30;;;;;;;8.80;3.73;;;18.50;99.90;;;;;;5095853;28;20286;-86
2023/04/25 08:13:56;;;;;;;12.87;4.10;;;19.10;99.90;;;;;;5101601;28;20457;-85
2023/04/25 08:16:22;;;;;;;11.87;3.97;;;19.50;99.90;;;;;;5095029;28;20215;-85
2023/04/25 08:18:47;;;;;;;11.13;3.10;;;19.10;99.90;;;;;;5099423;28;20188;-85
2023/04/25 08:21:13;;;;;;;12.63;3.37;;;18.90;99.90;;;;;;5095147;28;20187;-86
2023/04/25 08:23:39;;;;;;;11.43;3.17;;;20.20;99.90;;;;;;5098606;28;20242;-83
2023/04/25 08:26:05;;;;;;;9.10;3.90;;;20.90;99.90;;;;;;5095125;28;20172;-85
2023/04/25 08:28:31;;;;;;;8.83;3.53;;;20.70;99.90;;;;;;5086641;28;21017;-85
2023/04/25 08:30:57;;;;;;;8.20;3.00;;;20.50;99.90;;;;;;5096819;28;20185;-85
2023/04/25 08:33:22;;;;;;;9.07;2.77;;;20.90;99.90;;;;;;5091133;28;21004;-85
2023/04/25 08:35:48;;;;;;;7.43;2.57;;;21.00;99.90;;;;;;5094260;28;20212;-85
2023/04/25 08:38:14;;;;;;;8.30;2.93;;;20.40;99.90;;;;;;5085363;28;20184;-86
2023/04/25 08:40:41;;;;;;;15.80;3.80;;;19.60;99.90;;;;;;5092463;28;20183;-84
2023/04/25 08:43:11;;;;;;;6.77;2.27;;;18.70;99.90;;;;;;5092415;28;20179;-85
2023/04/25 08:45:40;;;;;;;9.50;3.17;;;18.30;99.90;;;;;;5083357;28;20434;-84
2023/04/25 08:48:10;;;;;;;4.43;2.10;;;18.00;99.90;;;;;;5094084;28;20501;-85
2023/04/25 08:50:36;;;;;;;8.93;2.90;;;19.70;99.90;;;;;;5076441;28;20973;-85
2023/04/25 08:53:08;;;;;;;5.90;2.55;;;20.90;99.90;;;;;;5094300;28;21081;-85
2023/04/25 08:55:35;;;;;;;10.03;3.10;;;22.20;99.90;;;;;;5084578;28;20206;-85
2023/04/25 08:58:01;;;;;;;7.07;2.47;;;22.80;99.90;;;;;;5091190;28;20433;-85
2023/04/25 09:00:27;;;;;;;7.83;2.97;;;22.50;99.90;;;;;;5094226;28;20426;-85
2023/04/25 09:02:53;;;;;;;7.00;2.10;;;22.50;99.90;;;;;;5093609;28;20184;-85
2023/04/25 09:05:19;;;;;;;7.17;2.67;;;22.40;99.90;;;;;;5093495;28;20811;-85
2023/04/25 09:07:44;;;;;;;7.10;3.10;;;21.80;99.90;;;;;;5094542;28;20443;-85
2023/04/25 09:10:10;;;;;;;8.60;3.10;;;21.00;99.90;;;;;;5091994;28;20270;-85
2023/04/25 09:12:36;;;;;;;8.43;2.70;;;20.10;99.90;;;;;;5100738;28;20187;-86
2023/04/25 09:15:07;;;;;;;9.33;2.50;;;19.30;99.90;;;;;;5110992;28;20231;-86
2023/04/25 09:17:33;;;;;;;11.87;3.33;;;18.60;99.90;;;;;;5108930;28;20477;-84
2023/04/25 09:20:09;;;;;;;7.77;2.43;;;18.00;99.90;;;;;;5083160;28;20425;-84
2023/04/25 09:22:36;;;;;;;9.57;3.30;;;18.10;99.90;;;;;;5090321;28;20178;-84
2023/04/25 09:25:04;;;;;;;5.60;3.07;;;20.40;99.90;;;;;;5089718;28;20460;-85
2023/04/25 09:27:30;;;;;;;7.33;3.03;;;21.70;99.90;;;;;;5085080;28;20447;-84
2023/04/25 09:30:02;;;;;;;6.03;3.00;;;21.40;99.90;;;;;;5090973;28;20434;-84
2023/04/25 09:32:28;;;;;;;6.10;3.00;;;20.80;99.90;;;;;;5079885;28;20535;-83
2023/04/25 09:34:55;;;;;;;5.60;2.53;;;20.80;99.90;;;;;;5078185;28;20537;-84
2023/04/25 09:37:26;;;;;;;7.80;2.50;;;20.30;99.90;;;;;;5094158;28;20798;-84
2023/04/25 09:40:05;;;;;;;10.40;2.60;;;19.70;99.90;;;;;;5093920;28;20942;-83
2023/04/25 09:42:31;;;;;;;8.77;3.50;;;19.50;99.90;;;;;;5091787;28;20526;-84
2023/04/25 09:44:58;;;;;;;6.20;2.60;;;19.40;99.90;;;;;;5093676;28;20926;-84
2023/04/25 09:47:26;;;;;;;7.13;2.60;;;21.50;99.90;;;;;;5084022;28;20420;-85
2023/04/25 09:49:52;;;;;;;10.00;2.43;;;24.70;99.90;;;;;;5089866;28;20433;-85
2023/04/25 09:52:23;;;;;;;5.33;2.50;;;26.30;99.90;;;;;;5091384;28;20425;-87
2023/04/25 09:54:49;;;;;;;10.07;3.10;;;25.50;99.90;;;;;;5086229;28;20436;-85
2023/04/25 09:57:19;;;;;;;7.40;2.57;;;24.30;99.90;;;;;;5091257;28;20218;-84
2023/04/25 09:59:53;;;;;;;9.37;3.33;;;22.70;99.90;;;;;;5091146;28;20451;-85
2023/04/25 10:02:24;;;;;;;9.57;2.43;;;21.20;99.90;;;;;;5092482;28;20434;-84
2023/04/25 10:04:54;;;;;;;6.80;2.50;;;19.70;99.90;;;;;;5089086;28;20459;-84
2023/04/25 10:07:30;;;;;;;9.60;3.30;;;18.50;99.90;;;;;;5087855;28;20437;-83
2023/04/25 10:10:03;;;;;;;7.20;2.97;;;17.60;99.90;;;;;;5091943;28;20506;-84
2023/04/25 10:12:33;;;;;;;11.73;2.63;;;16.90;99.90;;;;;;5092241;28;20434;-85
2023/04/25 10:15:00;;;;;;;10.90;4.30;;;16.20;99.90;;;;;;5093719;28;20445;-85
2023/04/25 10:17:29;;;;;;;11.87;3.03;;;15.70;99.90;;;;;;5088490;28;21005;-84
2023/04/25 10:19:56;;;;;;;9.03;2.90;;;15.50;99.90;;;;;;5090845;28;20431;-83
2023/04/25 10:22:43;;;;;;;7.30;2.60;;;15.50;99.90;;;;;;5085075;28;20854;-85
2023/04/25 10:25:10;;;;;;;6.80;2.37;;;15.80;99.90;;;;;;5081947;28;21054;-83
2023/04/25 10:27:36;;;;;;;10.23;2.77;;;16.20;99.90;;;;;;5093513;28;20431;-84
2023/04/25 10:30:14;;;;;;;3.40;2.20;;;16.70;99.90;;;;;;5093646;28;20423;-83
2023/04/25 10:32:41;;;;;;;4.00;2.00;;;17.60;99.90;;;;;;5089885;28;20462;-84
2023/04/25 10:35:12;;;;;;;6.80;2.17;;;18.00;99.90;;;;;;5099117;28;20438;-84
2023/04/25 10:37:38;;;;;;;9.33;2.80;;;18.20;99.90;;;;;;5096073;28;20425;-84
2023/04/25 10:40:10;;;;;;;5.73;2.30;;;18.40;99.90;;;;;;5098877;28;20440;-84
2023/04/25 10:42:36;;;;;;;5.17;2.33;;;18.50;99.90;;;;;;5094372;28;20554;-84
2023/04/25 10:45:05;;;;;;;7.40;2.27;;;18.40;99.90;;;;;;5096578;28;20460;-84
2023/04/25 10:47:42;;;;;;;3.83;2.10;;;18.80;99.90;;;;;;5092827;28;20576;-83
2023/04/25 10:50:08;;;;;;;6.17;2.53;;;19.00;99.90;;;;;;5088785;28;20794;-84
2023/04/25 10:52:34;;;;;;;6.83;2.67;;;19.20;99.90;;;;;;5093926;28;20428;-83
2023/04/25 10:55:03;;;;;;;6.23;2.30;;;19.00;99.90;;;;;;5094779;28;21050;-85
2023/04/25 10:57:50;;;;;;;5.50;2.60;;;18.90;99.90;;;;;;5092559;28;20205;-85
2023/04/25 11:00:18;;;;;;;6.13;2.20;;;18.70;99.90;;;;;;5078578;28;20439;-84
2023/04/25 11:02:45;;;;;;;6.53;3.03;;;18.50;99.90;;;;;;5094500;28;20431;-84
2023/04/25 11:05:19;;;;;;;7.07;2.70;;;18.30;99.90;;;;;;5082848;28;20990;-84
2023/04/25 11:07:56;;;;;;;7.97;3.13;;;18.10;99.90;;;;;;5089006;28;20438;-84
2023/04/25 11:10:25;;;;;;;6.50;2.60;;;18.00;99.90;;;;;;5087874;28;20812;-85
2023/04/25 11:12:51;;;;;;;6.87;2.17;;;18.10;99.90;;;;;;5085377;28;20455;-84
2023/04/25 11:15:16;;;;;;;9.40;2.83;;;17.80;99.90;;;;;;5094289;28;20438;-85
2023/04/25 11:17:43;;;;;;;9.13;2.50;;;17.70;99.90;;;;;;5088553;28;20183;-84
2023/04/25 11:20:11;;;;;;;5.30;2.03;;;18.80;99.90;;;;;;5090226;28;20179;-85
2023/04/25 11:22:38;;;;;;;4.97;1.87;;;20.80;99.90;;;;;;5090911;28;20533;-85
2023/04/25 11:25:06;;;;;;;6.37;2.27;;;22.50;99.90;;;;;;5092106;28;20458;-85
2023/04/25 11:27:31;;;;;;;7.07;2.10;;;23.80;99.90;;;;;;5090239;28;20439;-85
2023/04/25 11:29:57;;;;;;;4.70;1.60;;;24.30;99.90;;;;;;5090689;28;21210;-85
2023/04/25 11:32:23;;;;;;;6.23;2.33;;;24.80;99.90;;;;;;5087262;28;20204;-84
2023/04/25 11:34:48;;;;;;;6.10;2.57;;;25.40;99.90;;;;;;5084880;28;20290;-84
2023/04/25 11:37:14;;;;;;;5.83;2.20;;;24.80;99.90;;;;;;5093635;28;20472;-85
2023/04/25 11:39:44;;;;;;;12.80;2.10;;;24.70;99.90;;;;;;5094133;28;20186;-85
2023/04/25 11:42:10;;;;;;;8.10;2.50;;;25.10;99.90;;;;;;5095855;28;20610;-85
2023/04/25 11:44:39;;;;;;;7.57;2.40;;;24.60;99.90;;;;;;5086374;28;20454;-84
2023/04/25 11:47:04;;;;;;;7.33;2.13;;;24.00;99.90;;;;;;5089146;28;20187;-84
2023/04/25 11:49:31;;;;;;;5.43;1.97;;;23.20;99.90;;;;;;5087547;28;20434;-85
2023/04/25 11:51:57;;;;;;;9.57;2.23;;;21.90;99.90;;;;;;5089916;28;20561;-83
2023/04/25 11:54:23;;;;;;;6.33;2.10;;;20.70;99.90;;;;;;5091302;28;20465;-84
2023/04/25 11:56:48;;;;;;;4.50;2.13;;;19.60;98.60;;;;;;5092353;28;20209;-85
2023/04/25 11:59:14;;;;;;;4.10;2.30;;;18.90;96.90;;;;;;5086303;28;20190;-84
2023/04/25 12:01:41;;;;;;;5.93;2.27;;;18.20;96.30;;;;;;5086466;28;20188;-84
2023/04/25 12:04:33;;;;;;;5.73;2.10;;;17.40;94.80;;;;;;5086041;28;20470;-84
2023/04/25 12:07:00;;;;;;;9.47;3.00;;;16.80;94.10;;;;;;5079823;28;20426;-84
2023/04/25 12:09:31;;;;;;;7.20;2.63;;;16.40;93.50;;;;;;5088833;28;20858;-84
2023/04/25 12:11:59;;;;;;;8.40;2.93;;;16.20;94.10;;;;;;5097192;28;20577;-84
2023/04/25 12:14:30;;;;;;;5.47;2.17;;;15.80;93.80;;;;;;5090913;28;20449;-85
2023/04/25 12:16:58;;;;;;;4.10;2.10;;;15.60;93.70;;;;;;5096948;28;20504;-84
2023/04/25 12:19:24;;;;;;;6.63;2.53;;;15.50;94.40;;;;;;5095797;28;20467;-84
2023/04/25 12:21:50;;;;;;;4.60;2.20;;;15.60;95.30;;;;;;5095754;28;20509;-85
2023/04/25 12:24:15;;;;;;;4.67;2.40;;;15.70;96.60;;;;;;5086152;28;20461;-84
2023/04/25 12:27:01;;;;;;;7.87;2.60;;;16.50;99.60;;;;;;5087750;28;20458;-84
2023/04/25 12:29:28;;;;;;;5.30;2.27;;;18.50;99.90;;;;;;5091323;28;20187;-85
2023/04/25 12:31:55;;;;;;;5.87;2.30;;;20.20;99.90;;;;;;5082963;28;20434;-84
2023/04/25 12:34:21;;;;;;;7.50;2.90;;;21.50;99.90;;;;;;5088720;28;20455;-85
2023/04/25 12:36:47;;;;;;;5.43;2.70;;;22.20;99.90;;;;;;5075978;28;20411;-85
2023/04/25 12:39:23;;;;;;;4.80;2.30;;;22.90;99.90;;;;;;5086292;28;20573;-85
2023/04/25 12:41:50;;;;;;;5.13;2.03;;;23.50;99.90;;;;;;5080744;28;20464;-85
2023/04/25 12:44:16;;;;;;;6.43;2.30;;;24.00;99.90;;;;;;5081942;28;20462;-86
2023/04/25 12:46:42;;;;;;;5.60;2.10;;;24.30;99.90;;;;;;5100642;28;20425;-85